createdAt,value
2018-12-10T00:01:01.326Z,94244.17
2018-12-10T00:03:27.321Z,94249.05
2018-12-10T00:05:53.333Z,94240.05
2018-12-10T00:08:19.312Z,94242.00
2018-12-10T00:10:45.294Z,94242.39
2018-12-10T00:13:11.298Z,94240.75
2018-12-10T00:15:37.279Z,94235.72
2018-12-10T00:18:03.270Z,94238.47
2018-12-10T00:20:29.263Z,94239.39
2018-12-10T00:22:55.252Z,94236.08
2018-12-10T00:25:21.215Z,94232.75
2018-12-10T00:27:47.221Z,94227.62
2018-12-10T00:30:13.208Z,94227.29
2018-12-10T00:32:39.201Z,94226.23
2018-12-10T00:35:05.181Z,94226.87
2018-12-10T00:37:31.183Z,94231.56
2018-12-10T00:39:57.153Z,94224.85
2018-12-10T00:42:23.164Z,94231.14
2018-12-10T00:44:49.139Z,94237.05
2018-12-10T00:47:15.124Z,94240.77
2018-12-10T00:49:41.102Z,94238.40
2018-12-10T00:52:07.098Z,94233.49
2018-12-10T00:54:33.094Z,94229.15
2018-12-10T00:56:59.081Z,94222.87
2018-12-10T00:59:25.102Z,94216.95
2018-12-10T01:01:51.083Z,94216.42
2018-12-10T01:04:17.052Z,94211.47
2018-12-10T01:06:43.078Z,94206.37
2018-12-10T01:09:09.051Z,94209.72
2018-12-10T01:11:35.116Z,94206.97
2018-12-10T01:14:01.157Z,94204.22
2018-12-10T01:16:27.138Z,94198.49
2018-12-10T01:18:53.222Z,94194.80
2018-12-10T01:21:19.202Z,94192.19
2018-12-10T01:23:45.184Z,94186.54
2018-12-10T01:26:11.187Z,94181.99
2018-12-10T01:28:37.164Z,94184.01
2018-12-10T01:31:03.142Z,94172.17
2018-12-10T01:33:29.127Z,94176.30
2018-12-10T01:35:55.118Z,94173.72
2018-12-10T01:38:21.101Z,94175.34
2018-12-10T01:40:47.094Z,94179.24
2018-12-10T01:43:13.086Z,94174.56
2018-12-10T01:45:39.066Z,94168.62
2018-12-10T01:48:05.038Z,94180.86
2018-12-10T01:50:31.033Z,94176.72
2018-12-10T01:52:57.015Z,94167.86
2018-12-10T01:55:22.996Z,94169.80
2018-12-10T01:57:48.991Z,94166.84
2018-12-10T02:00:15.000Z,94164.14
2018-12-10T02:02:40.970Z,94170.57
2018-12-10T02:05:06.967Z,94164.88
2018-12-10T02:07:32.955Z,94153.67
2018-12-10T02:09:58.934Z,94152.12
2018-12-10T02:12:24.915Z,94149.77
2018-12-10T02:14:50.913Z,94141.12
2018-12-10T02:17:16.957Z,94140.30
2018-12-10T02:19:42.955Z,94145.66
2018-12-10T02:22:08.972Z,94146.66
2018-12-10T02:24:34.948Z,94139.77
2018-12-10T02:27:00.922Z,94131.28
2018-12-10T02:29:26.913Z,94130.29
2018-12-10T02:31:52.894Z,94124.42
2018-12-10T02:34:18.877Z,94119.11
2018-12-10T02:36:44.866Z,94115.75
2018-12-10T02:39:10.842Z,94105.56
2018-12-10T02:41:36.834Z,94103.16
2018-12-10T02:44:02.820Z,94106.12
2018-12-10T02:46:28.811Z,94102.61
2018-12-10T02:48:54.798Z,94102.75
2018-12-10T02:51:20.765Z,94101.22
2018-12-10T02:53:46.762Z,94105.34
2018-12-10T02:56:12.739Z,94103.19
2018-12-10T02:58:38.748Z,94089.95
2018-12-10T03:01:04.735Z,94073.52
2018-12-10T03:03:30.721Z,94079.39
2018-12-10T03:05:56.721Z,94080.40
2018-12-10T03:08:22.720Z,94084.88
2018-12-10T03:10:48.701Z,94090.58
2018-12-10T03:13:14.691Z,94089.64
2018-12-10T03:15:40.672Z,94091.56
2018-12-10T03:18:06.663Z,94092.95
2018-12-10T03:20:32.635Z,94096.30
2018-12-10T03:22:58.641Z,94088.05
2018-12-10T03:25:24.663Z,94087.28
2018-12-10T03:27:50.649Z,94090.77
2018-12-10T03:30:16.662Z,94098.20
2018-12-10T03:32:42.800Z,94097.45
2018-12-10T03:35:08.625Z,94100.59
2018-12-10T03:37:34.629Z,94108.08
2018-12-10T03:40:00.628Z,94117.72
2018-12-10T03:42:26.598Z,94117.69
2018-12-10T03:44:52.572Z,94112.36
2018-12-10T03:47:18.574Z,94120.62
2018-12-10T03:49:44.553Z,94123.38
2018-12-10T03:52:10.539Z,94137.73
2018-12-10T03:54:36.534Z,94135.98
2018-12-10T03:57:02.564Z,94139.30
2018-12-10T03:59:28.490Z,94137.51
2018-12-10T04:01:54.487Z,94136.95
2018-12-10T04:04:20.476Z,94140.67
2018-12-10T04:06:46.463Z,94143.25
2018-12-10T04:09:12.432Z,94146.33
2018-12-10T04:11:38.431Z,94147.51
2018-12-10T04:14:04.393Z,94142.83
2018-12-10T04:16:30.401Z,94151.10
2018-12-10T04:18:56.377Z,94144.59
2018-12-10T04:21:22.399Z,94140.83
2018-12-10T04:23:48.375Z,94141.84
2018-12-10T04:26:14.388Z,94144.94
2018-12-10T04:28:40.388Z,94144.95
2018-12-10T04:31:06.380Z,94139.13
2018-12-10T04:33:32.369Z,94142.44
2018-12-10T04:35:58.361Z,94147.11
2018-12-10T04:38:24.328Z,94148.33
2018-12-10T04:40:50.335Z,94148.09
2018-12-10T04:43:16.331Z,94146.13
2018-12-10T04:45:42.303Z,94140.61
2018-12-10T04:48:08.283Z,94142.81
2018-12-10T04:50:34.289Z,94143.54
2018-12-10T04:53:00.275Z,94137.86
2018-12-10T04:55:26.276Z,94140.99
2018-12-10T04:57:52.265Z,94144.34
2018-12-10T05:00:18.238Z,94148.71
2018-12-10T05:02:44.258Z,94143.74
2018-12-10T05:05:10.254Z,94139.86
2018-12-10T05:07:36.260Z,94135.31
2018-12-10T05:10:02.238Z,94128.45
2018-12-10T05:12:28.232Z,94121.98
2018-12-10T05:14:54.216Z,94126.71
2018-12-10T05:17:20.185Z,94126.89
2018-12-10T05:19:46.209Z,94117.64
2018-12-10T05:22:12.188Z,94117.84
2018-12-10T05:24:38.235Z,94109.97
2018-12-10T05:27:04.219Z,94108.23
2018-12-10T05:29:30.248Z,94103.52
2018-12-10T05:31:56.219Z,94107.80
2018-12-10T05:34:22.217Z,94113.11
2018-12-10T05:36:48.196Z,94117.80
2018-12-10T05:39:14.191Z,94121.11
2018-12-10T05:41:40.177Z,94126.00
2018-12-10T05:44:06.177Z,94129.38
2018-12-10T05:46:32.191Z,94134.73
2018-12-10T05:48:58.179Z,94135.31
2018-12-10T05:51:24.174Z,94143.12
2018-12-10T05:53:50.219Z,94148.80
2018-12-10T05:56:16.196Z,94152.50
2018-12-10T05:58:42.188Z,94151.95
2018-12-10T06:01:08.183Z,94146.05
2018-12-10T06:03:34.170Z,94153.88
2018-12-10T06:06:00.151Z,94149.96
2018-12-10T06:08:26.145Z,94157.01
2018-12-10T06:10:52.118Z,94154.43
2018-12-10T06:13:18.118Z,94166.61
2018-12-10T06:15:44.113Z,94167.88
2018-12-10T06:18:10.094Z,94173.14
2018-12-10T06:20:36.167Z,94176.47
2018-12-10T06:23:02.178Z,94170.05
2018-12-10T06:25:28.158Z,94171.81
2018-12-10T06:27:54.148Z,94180.42
2018-12-10T06:30:20.162Z,94184.38
2018-12-10T06:32:46.140Z,94184.38
2018-12-10T06:35:12.137Z,94189.27
2018-12-10T06:37:38.109Z,94194.15
2018-12-10T06:40:04.129Z,94200.84
2018-12-10T06:42:30.101Z,94207.50
2018-12-10T06:44:56.141Z,94214.97
2018-12-10T06:47:22.152Z,94220.27
2018-12-10T06:49:48.151Z,94221.07
2018-12-10T06:52:14.132Z,94229.92
2018-12-10T06:54:40.145Z,94227.72
2018-12-10T06:57:06.147Z,94233.42
2018-12-10T06:59:32.200Z,94232.34
2018-12-10T07:01:58.164Z,94237.50
2018-12-10T07:04:24.159Z,94245.80
2018-12-10T07:06:50.159Z,94247.78
2018-12-10T07:09:16.150Z,94253.31
2018-12-10T07:11:42.151Z,94259.88
2018-12-10T07:14:08.154Z,94255.98
2018-12-10T07:16:34.130Z,94266.02
2018-12-10T07:19:00.122Z,94271.11
2018-12-10T07:21:26.105Z,94274.66
2018-12-10T07:23:52.088Z,94280.56
2018-12-10T07:26:18.120Z,94285.81
2018-12-10T07:28:44.115Z,94283.52
2018-12-10T07:31:10.101Z,94287.46
2018-12-10T07:33:36.073Z,94295.31
2018-12-10T07:36:02.097Z,94303.56
2018-12-10T07:38:28.111Z,94307.98
2018-12-10T07:40:54.104Z,94302.34
2018-12-10T07:43:20.117Z,94306.09
2018-12-10T07:45:46.315Z,94310.02
2018-12-10T07:48:12.329Z,94318.66
2018-12-10T07:50:38.433Z,94319.41
2018-12-10T07:53:04.486Z,94322.59
2018-12-10T07:55:30.465Z,94321.77
2018-12-10T07:57:56.558Z,94322.59
2018-12-10T08:00:22.611Z,94323.94
2018-12-10T08:02:48.586Z,94329.02
2018-12-10T08:05:14.614Z,94326.45
2018-12-10T08:07:40.656Z,94333.79
2018-12-10T08:10:06.617Z,94335.11
2018-12-10T08:12:32.592Z,94340.47
2018-12-10T08:14:58.585Z,94347.34
2018-12-10T08:17:24.595Z,94349.72
2018-12-10T08:19:50.587Z,94354.07
2018-12-10T08:22:18.233Z,94352.92
2018-12-10T08:24:44.227Z,94353.52
2018-12-10T08:27:10.901Z,94354.52
2018-12-10T08:29:36.889Z,94358.33
2018-12-10T08:32:02.868Z,94352.05
2018-12-10T08:34:29.523Z,94358.09
2018-12-10T08:36:55.729Z,94361.47
2018-12-10T08:39:21.510Z,94366.20
2018-12-10T08:41:47.558Z,94367.23
2018-12-10T08:44:13.516Z,94363.43
2018-12-10T08:46:40.522Z,94363.25
2018-12-10T08:49:06.507Z,94367.09
2018-12-10T08:51:32.497Z,94364.70
2018-12-10T08:53:58.631Z,94364.12
2018-12-10T08:56:24.674Z,94366.00
2018-12-10T08:58:51.346Z,94368.46
2018-12-10T09:01:17.316Z,94368.23
2018-12-10T09:03:43.353Z,94367.61
2018-12-10T09:06:09.338Z,94366.08
2018-12-10T09:08:35.326Z,94363.16
2018-12-10T09:11:01.333Z,94353.91
2018-12-10T09:13:27.319Z,94354.88
2018-12-10T09:15:53.383Z,94359.20
2018-12-10T09:18:19.322Z,94356.68
2018-12-10T09:20:45.314Z,94352.60
2018-12-10T09:23:11.286Z,94358.25
2018-12-10T09:25:37.263Z,94356.40
2018-12-10T09:28:03.266Z,94352.91
2018-12-10T09:30:29.242Z,94354.30
2018-12-10T09:32:55.226Z,94349.75
2018-12-10T09:35:21.240Z,94354.34
2018-12-10T09:37:47.206Z,94355.58
2018-12-10T09:40:13.192Z,94351.17
2018-12-10T09:42:39.189Z,94350.20
2018-12-10T09:45:05.168Z,94346.05
2018-12-10T09:47:31.148Z,94343.30
2018-12-10T09:49:57.136Z,94345.62
2018-12-10T09:52:23.116Z,94349.25
2018-12-10T09:54:49.111Z,94343.17
2018-12-10T09:57:15.142Z,94343.02
2018-12-10T09:59:41.139Z,94340.45
2018-12-10T10:02:12.303Z,94344.09
2018-12-10T10:04:33.127Z,94343.92
2018-12-10T10:06:59.099Z,94347.52
2018-12-10T10:09:25.079Z,94345.95
2018-12-10T10:11:51.087Z,94346.72
2018-12-10T10:14:17.085Z,94342.92
2018-12-10T10:16:43.067Z,94336.47
2018-12-10T10:19:09.055Z,94336.02
2018-12-10T10:21:35.042Z,94333.27
2018-12-10T10:24:01.026Z,94332.86
2018-12-10T10:26:27.014Z,94331.34
2018-12-10T10:28:53.016Z,94326.17
2018-12-10T10:31:18.985Z,94326.94
2018-12-10T10:33:44.981Z,94328.12
2018-12-10T10:36:10.970Z,94321.66
2018-12-10T10:38:36.975Z,94318.91
2018-12-10T10:41:02.941Z,94320.69
2018-12-10T10:43:28.976Z,94312.87
2018-12-10T10:45:54.947Z,94312.04
2018-12-10T10:48:20.933Z,94314.39
2018-12-10T10:50:46.943Z,94306.69
2018-12-10T10:53:12.939Z,94305.71
2018-12-10T10:55:38.916Z,94300.27
2018-12-10T10:58:04.964Z,94298.06
2018-12-10T11:00:30.950Z,94309.69
2018-12-10T11:02:56.976Z,94298.84
2018-12-10T11:05:22.960Z,94298.03
2018-12-10T11:07:48.997Z,94303.71
2018-12-10T11:10:14.988Z,94299.23
2018-12-10T11:12:40.965Z,94303.34
2018-12-10T11:15:06.947Z,94304.36
2018-12-10T11:17:32.927Z,94303.16
2018-12-10T11:19:58.921Z,94299.59
2018-12-10T11:22:24.922Z,94302.56
2018-12-10T11:24:50.898Z,94301.41
2018-12-10T11:27:16.864Z,94308.69
2018-12-10T11:29:42.863Z,94309.44
2018-12-10T11:32:08.850Z,94309.86
2018-12-10T11:34:34.839Z,94311.23
2018-12-10T11:37:00.831Z,94315.79
2018-12-10T11:39:26.803Z,94313.19
2018-12-10T11:41:52.814Z,94317.72
2018-12-10T11:44:18.800Z,94319.91
2018-12-10T11:46:44.791Z,94319.66
2018-12-10T11:49:10.780Z,94318.52
2018-12-10T11:51:36.790Z,94317.72
2018-12-10T11:54:03.856Z,94314.36
2018-12-10T11:56:28.743Z,94317.72
2018-12-10T11:58:54.749Z,94317.11
2018-12-10T12:01:20.764Z,94316.31
2018-12-10T12:03:46.762Z,94313.19
2018-12-10T12:06:12.740Z,94315.62
2018-12-10T12:08:38.767Z,94313.42
2018-12-10T12:11:04.724Z,94315.28
2018-12-10T12:13:30.712Z,94317.47
2018-12-10T12:15:56.747Z,94318.52
2018-12-10T12:18:22.758Z,94323.11
2018-12-10T12:20:48.734Z,94308.89
2018-12-10T12:23:14.696Z,94311.59
2018-12-10T12:25:40.669Z,94311.47
2018-12-10T12:28:06.649Z,94309.67
2018-12-10T12:30:32.633Z,94313.39
2018-12-10T12:32:58.626Z,94314.77
2018-12-10T12:35:24.612Z,94307.44
2018-12-10T12:37:50.621Z,94303.39
2018-12-10T12:40:16.600Z,94311.61
2018-12-10T12:42:42.611Z,94306.89
2018-12-10T12:45:08.604Z,94303.53
2018-12-10T12:47:34.571Z,94308.27
2018-12-10T12:50:00.544Z,94316.28
2018-12-10T12:52:26.536Z,94304.34
2018-12-10T12:54:52.511Z,94308.86
2018-12-10T12:57:18.487Z,94303.16
2018-12-10T12:59:44.470Z,94303.71
2018-12-10T13:02:10.512Z,94308.23
2018-12-10T13:04:36.490Z,94311.79
2018-12-10T13:07:02.482Z,94313.53
2018-12-10T13:09:28.466Z,94308.29
2018-12-10T13:11:54.442Z,94305.14
2018-12-10T13:14:20.438Z,94300.64
2018-12-10T13:16:49.518Z,94307.11
2018-12-10T13:19:12.401Z,94305.73
2018-12-10T13:21:38.382Z,94314.56
2018-12-10T13:24:04.668Z,94309.06
2018-12-10T13:26:30.632Z,94312.97
2018-12-10T13:28:56.632Z,94317.41
2018-12-10T13:31:22.615Z,94315.36
2018-12-10T13:33:48.603Z,94318.06
2018-12-10T13:36:14.565Z,94325.94
2018-12-10T13:38:40.604Z,94319.66
2018-12-10T13:41:06.570Z,94318.84
2018-12-10T13:43:32.566Z,94324.69
2018-12-10T13:45:58.598Z,94322.59
2018-12-10T13:48:24.546Z,94326.37
2018-12-10T13:50:50.545Z,94334.20
2018-12-10T13:53:16.521Z,94331.05
2018-12-10T13:55:42.508Z,94328.91
2018-12-10T13:58:08.493Z,94332.47
2018-12-10T14:00:34.499Z,94331.49
2018-12-10T14:03:00.505Z,94332.67
2018-12-10T14:05:27.740Z,94333.30
2018-12-10T14:07:52.531Z,94333.74
2018-12-10T14:10:18.516Z,94336.05
2018-12-10T14:12:44.514Z,94333.22
2018-12-10T14:15:10.486Z,94331.86
2018-12-10T14:17:36.509Z,94330.09
2018-12-10T14:20:02.472Z,94336.61
2018-12-10T14:22:28.484Z,94334.52
2018-12-10T14:24:54.461Z,94342.02
2018-12-10T14:27:20.510Z,94348.99
2018-12-10T14:29:46.472Z,94340.92
2018-12-10T14:32:12.465Z,94342.87
2018-12-10T14:34:38.451Z,94339.34
2018-12-10T14:37:04.433Z,94349.77
2018-12-10T14:39:30.430Z,94349.29
2018-12-10T14:41:56.465Z,94344.54
2018-12-10T14:44:22.452Z,94339.66
2018-12-10T14:46:48.434Z,94342.62
2018-12-10T14:49:14.417Z,94343.34
2018-12-10T14:51:40.416Z,94343.31
2018-12-10T14:54:06.396Z,94351.44
2018-12-10T14:56:32.416Z,94355.45
2018-12-10T14:58:58.423Z,94358.52
2018-12-10T15:01:24.418Z,94362.61
2018-12-10T15:03:50.409Z,94364.59
2018-12-10T15:06:16.423Z,94369.54
2018-12-10T15:08:42.387Z,94362.84
2018-12-10T15:11:08.394Z,94367.00
2018-12-10T15:13:34.456Z,94369.00
2018-12-10T15:16:00.439Z,94380.57
2018-12-10T15:18:26.457Z,94375.63
2018-12-10T15:20:52.451Z,94380.29
2018-12-10T15:23:18.430Z,94387.59
2018-12-10T15:25:44.441Z,94384.81
2018-12-10T15:28:10.426Z,94396.47
2018-12-10T15:30:36.434Z,94399.74
2018-12-10T15:33:02.398Z,94398.77
2018-12-10T15:35:28.509Z,94400.55
2018-12-10T15:37:54.488Z,94398.37
2018-12-10T15:40:20.501Z,94390.97
2018-12-10T15:42:46.491Z,94391.09
2018-12-10T15:45:12.505Z,94400.31
2018-12-10T15:47:38.499Z,94399.57
2018-12-10T15:50:04.481Z,94399.57
2018-12-10T15:52:30.477Z,94399.74
2018-12-10T15:54:56.490Z,94404.04
2018-12-10T15:57:22.482Z,94406.45
2018-12-10T15:59:48.462Z,94405.22
2018-12-10T16:02:14.434Z,94408.16
2018-12-10T16:04:40.411Z,94412.09
2018-12-10T16:07:06.425Z,94415.55
2018-12-10T16:09:32.487Z,94420.17
2018-12-10T16:11:58.575Z,94419.20
2018-12-10T16:14:24.567Z,94419.05
2018-12-10T16:16:50.542Z,94417.82
2018-12-10T16:19:16.560Z,94421.55
2018-12-10T16:21:42.573Z,94418.66
2018-12-10T16:24:08.598Z,94423.34
2018-12-10T16:26:34.566Z,94427.13
2018-12-10T16:29:00.610Z,94431.11
2018-12-10T16:31:26.605Z,94428.70
2018-12-10T16:33:52.591Z,94437.27
2018-12-10T16:36:18.605Z,94442.77
2018-12-10T16:38:44.592Z,94448.88
2018-12-10T16:41:10.611Z,94443.12
2018-12-10T16:43:36.604Z,94444.72
2018-12-10T16:46:02.584Z,94448.39
2018-12-10T16:48:28.686Z,94441.71
2018-12-10T16:50:54.852Z,94444.49
2018-12-10T16:53:20.817Z,94446.50
2018-12-10T16:55:46.823Z,94454.78
2018-12-10T16:58:12.843Z,94451.39
2018-12-10T17:00:38.790Z,94456.61
2018-12-10T17:03:04.770Z,94457.75
2018-12-10T17:05:30.804Z,94464.95
2018-12-10T17:07:56.786Z,94466.58
2018-12-10T17:10:22.781Z,94455.92
2018-12-10T17:12:48.778Z,94463.95
2018-12-10T17:15:14.755Z,94454.72
2018-12-10T17:17:40.750Z,94462.77
2018-12-10T17:20:06.748Z,94458.62
2018-12-10T17:22:32.773Z,94456.21
2018-12-10T17:24:58.767Z,94457.98
2018-12-10T17:27:24.735Z,94464.27
2018-12-10T17:29:50.745Z,94469.39
2018-12-10T17:32:16.718Z,94468.30
2018-12-10T17:34:42.738Z,94465.61
2018-12-10T17:37:09.989Z,94462.94
2018-12-10T17:39:36.003Z,94461.42
2018-12-10T17:42:01.983Z,94469.77
2018-12-10T17:44:27.979Z,94472.55
2018-12-10T17:46:54.133Z,94469.59
2018-12-10T17:49:20.110Z,94466.07
2018-12-10T17:51:46.120Z,94474.00
2018-12-10T17:54:12.140Z,94473.17
2018-12-10T17:56:38.110Z,94471.56
2018-12-10T17:59:04.242Z,94476.15
2018-12-10T18:01:30.228Z,94482.54
2018-12-10T18:03:56.910Z,94478.96
2018-12-10T18:06:22.480Z,94486.06
2018-12-10T18:08:48.517Z,94487.93
2018-12-10T18:11:14.520Z,94491.40
2018-12-10T18:13:40.545Z,94485.98
2018-12-10T18:16:06.532Z,94490.52
2018-12-10T18:18:32.753Z,94490.34
2018-12-10T18:20:58.518Z,94493.27
2018-12-10T18:23:24.535Z,94496.67
2018-12-10T18:25:50.523Z,94498.85
2018-12-10T18:28:16.525Z,94494.66
2018-12-10T18:30:42.510Z,94501.72
2018-12-10T18:33:08.499Z,94500.48
2018-12-10T18:35:34.488Z,94499.11
2018-12-10T18:38:00.467Z,94498.34
2018-12-10T18:40:26.460Z,94498.28
2018-12-10T18:42:52.435Z,94499.37
2018-12-10T18:45:18.415Z,94500.11
2018-12-10T18:47:44.444Z,94500.63
2018-12-10T18:50:10.411Z,94510.66
2018-12-10T18:52:36.389Z,94515.73
2018-12-10T18:55:02.379Z,94511.92
2018-12-10T18:57:28.339Z,94524.25
2018-12-10T18:59:54.324Z,94531.05
2018-12-10T19:02:20.366Z,94532.13
2018-12-10T19:04:46.354Z,94527.78
2018-12-10T19:07:12.367Z,94536.27
2018-12-10T19:09:38.350Z,94533.59
2018-12-10T19:12:04.318Z,94537.50
2018-12-10T19:14:30.290Z,94538.27
2018-12-10T19:16:56.286Z,94539.64
2018-12-10T19:19:22.272Z,94534.34
2018-12-10T19:21:48.270Z,94534.52
2018-12-10T19:24:14.256Z,94540.45
2018-12-10T19:26:40.238Z,94538.76
2018-12-10T19:29:06.208Z,94533.05
2018-12-10T19:31:32.188Z,94529.33
2018-12-10T19:34:03.453Z,94538.62
2018-12-10T19:36:24.179Z,94550.08
2018-12-10T19:38:50.159Z,94545.29
2018-12-10T19:41:16.137Z,94548.78
2018-12-10T19:43:42.128Z,94554.59
2018-12-10T19:46:08.102Z,94555.77
2018-12-10T19:48:34.098Z,94555.63
2018-12-10T19:51:00.079Z,94555.44
2018-12-10T19:53:26.180Z,94545.29
2018-12-10T19:55:52.211Z,94543.48
2018-12-10T19:58:18.231Z,94547.41
2018-12-10T20:00:44.251Z,94542.08
2018-12-10T20:03:10.222Z,94538.15
2018-12-10T20:05:36.247Z,94540.53
2018-12-10T20:08:02.220Z,94537.00
2018-12-10T20:10:28.214Z,94538.75
2018-12-10T20:12:54.227Z,94543.86
2018-12-10T20:15:20.206Z,94540.70
2018-12-10T20:17:46.184Z,94530.67
2018-12-10T20:20:12.193Z,94527.92
2018-12-10T20:22:38.346Z,94528.29
2018-12-10T20:25:04.357Z,94533.25
2018-12-10T20:27:30.319Z,94533.25
2018-12-10T20:29:56.511Z,94531.84
2018-12-10T20:32:22.945Z,94534.80
2018-12-10T20:34:49.003Z,94529.30
2018-12-10T20:37:14.954Z,94529.09
2018-12-10T20:39:40.938Z,94538.35
2018-12-10T20:42:06.914Z,94538.52
2018-12-10T20:44:32.907Z,94545.66
2018-12-10T20:46:58.877Z,94541.27
2018-12-10T20:49:24.874Z,94538.52
2018-12-10T20:51:50.865Z,94545.00
2018-12-10T20:54:16.857Z,94546.38
2018-12-10T20:56:42.849Z,94548.52
2018-12-10T20:59:08.854Z,94552.68
2018-12-10T21:01:34.840Z,94554.09
2018-12-10T21:04:00.824Z,94549.77
2018-12-10T21:06:26.813Z,94556.84
2018-12-10T21:08:52.808Z,94563.28
2018-12-10T21:11:18.804Z,94569.02
2018-12-10T21:13:44.804Z,94564.12
2018-12-10T21:16:10.814Z,94570.59
2018-12-10T21:18:36.871Z,94573.17
2018-12-10T21:21:02.863Z,94565.30
2018-12-10T21:23:28.863Z,94567.44
2018-12-10T21:25:54.841Z,94574.32
2018-12-10T21:28:20.849Z,94571.57
2018-12-10T21:30:46.831Z,94572.20
2018-12-10T21:33:12.847Z,94571.40
2018-12-10T21:35:38.818Z,94573.17
2018-12-10T21:38:04.825Z,94579.45
2018-12-10T21:40:30.819Z,94576.47
2018-12-10T21:42:56.787Z,94581.20
2018-12-10T21:45:22.776Z,94580.06
2018-12-10T21:47:48.765Z,94578.68
2018-12-10T21:50:14.737Z,94578.11
2018-12-10T21:52:40.725Z,94583.01
2018-12-10T21:55:06.699Z,94582.41
2018-12-10T21:57:32.726Z,94582.09
2018-12-10T21:59:58.709Z,94583.27
2018-12-10T22:02:24.695Z,94578.71
2018-12-10T22:04:50.695Z,94581.09
2018-12-10T22:07:16.691Z,94577.10
2018-12-10T22:09:42.663Z,94578.88
2018-12-10T22:12:08.665Z,94579.08
2018-12-10T22:14:34.653Z,94580.69
2018-12-10T22:17:00.666Z,94577.77
2018-12-10T22:19:26.639Z,94579.28
2018-12-10T22:21:52.622Z,94582.44
2018-12-10T22:24:18.610Z,94583.98
2018-12-10T22:26:44.666Z,94589.12
2018-12-10T22:29:10.658Z,94591.13
2018-12-10T22:31:36.618Z,94592.27
2018-12-10T22:34:02.609Z,94590.89
2018-12-10T22:36:28.598Z,94593.07
2018-12-10T22:38:54.588Z,94595.63
2018-12-10T22:41:20.558Z,94590.33
2018-12-10T22:43:46.558Z,94593.61
2018-12-10T22:46:12.507Z,94595.36
2018-12-10T22:48:38.512Z,94595.96
2018-12-10T22:51:04.492Z,94598.11
2018-12-10T22:53:30.484Z,94595.93
2018-12-10T22:55:56.455Z,94589.89
2018-12-10T22:58:22.454Z,94588.95
2018-12-10T23:00:48.453Z,94592.91
2018-12-10T23:03:14.416Z,94597.20
2018-12-10T23:05:40.429Z,94594.63
2018-12-10T23:08:06.410Z,94587.94
2018-12-10T23:10:32.385Z,94594.59
2018-12-10T23:12:58.366Z,94591.66
2018-12-10T23:15:24.345Z,94604.98
2018-12-10T23:17:50.335Z,94602.01
2018-12-10T23:20:18.457Z,94600.43
2018-12-10T23:22:44.446Z,94601.34
2018-12-10T23:25:10.411Z,94604.09
2018-12-10T23:27:36.390Z,94592.31
2018-12-10T23:30:02.685Z,94592.88
2018-12-10T23:32:28.688Z,94595.41
2018-12-10T23:34:54.723Z,94593.45
2018-12-10T23:37:20.705Z,94595.74
2018-12-10T23:39:46.731Z,94597.12
2018-12-10T23:42:12.707Z,94596.11
2018-12-10T23:44:38.682Z,94597.28
2018-12-10T23:47:04.702Z,94595.30
2018-12-10T23:49:30.683Z,94594.27
2018-12-10T23:51:56.657Z,94597.63
2018-12-10T23:54:22.653Z,94592.13
2018-12-10T23:56:48.637Z,94599.13
2018-12-10T23:59:14.675Z,94598.80
